Time;durP1;ratioP1;P1;durP2;ratioP2;P2;SDS_P1;SDS_P2;PMS_P1;PMS_P2;Temp;Humidity;BMP_temperature;BMP_pressure;BME280_temperature;BME280_humidity;BME280_pressure;Samples;Min_cycle;Max_cycle;Signal;HPM_P1;HPM_P2
2023/06/28 06:07:32;;;;;;;3.92;2.40;;;;;;;18.57;74.90;100338.00;5323718;28;20129;-84
2023/06/28 06:10:35;;;;;;;7.07;2.65;;;;;;;18.46;75.72;100335.25;5276949;33;34756;-84
2023/06/28 06:13:57;;;;;;;5.03;2.35;;;;;;;18.59;76.00;100344.03;5277274;33;33967;-84
2023/06/28 06:17:00;;;;;;;5.57;2.28;;;;;;;18.84;74.69;100354.03;5290470;33;34931;-84
2023/06/28 06:20:04;;;;;;;5.53;2.22;;;;;;;18.75;74.82;100348.06;5264689;33;34876;-84
2023/06/28 06:23:07;;;;;;;4.62;2.30;;;;;;;18.69;76.00;100354.41;5259751;33;33785;-84
2023/06/28 06:26:10;;;;;;;2.55;2.20;;;;;;;18.56;75.00;100357.31;5259089;33;34059;-84
2023/06/28 06:29:13;;;;;;;3.55;2.10;;;;;;;18.61;74.85;100368.38;5247401;33;33786;-84
2023/06/28 06:32:16;;;;;;;4.75;2.60;;;;;;;18.85;75.37;100361.12;5247618;33;33979;-84
2023/06/28 06:35:19;;;;;;;3.80;2.17;;;;;;;18.86;74.18;100364.69;5258579;33;33763;-84
2023/06/28 06:38:22;;;;;;;9.68;2.60;;;;;;;18.69;74.48;100378.09;5259463;33;34650;-83
2023/06/28 06:41:25;;;;;;;8.02;2.78;;;;;;;18.83;74.57;100381.50;5248127;33;33959;-84
2023/06/28 06:44:28;;;;;;;5.95;2.70;;;;;;;19.05;74.68;100381.84;5268791;33;33706;-84
2023/06/28 06:47:31;;;;;;;6.28;2.87;;;;;;;18.90;74.14;100387.72;5252440;33;33906;-84
2023/06/28 06:50:34;;;;;;;6.15;1.92;;;;;;;18.93;73.89;100393.53;5241996;33;33794;-84
2023/06/28 06:53:37;;;;;;;4.45;2.20;;;;;;;18.93;72.46;100400.91;5229585;33;33959;-84
2023/06/28 06:56:40;;;;;;;8.75;2.50;;;;;;;18.85;71.41;100390.31;5253863;33;33957;-84
2023/06/28 06:59:43;;;;;;;4.82;2.05;;;;;;;18.64;72.11;100402.53;5229907;33;33910;-84
2023/06/28 07:02:45;;;;;;;6.00;2.25;;;;;;;18.64;73.87;100389.72;5229124;33;33976;-84
2023/06/28 07:05:48;;;;;;;5.25;2.20;;;;;;;18.88;72.68;100385.22;5252158;33;33750;-84
2023/06/28 07:08:51;;;;;;;4.85;1.80;;;;;;;19.00;71.97;100388.78;5253770;33;33930;-84
2023/06/28 07:11:54;;;;;;;4.72;2.40;;;;;;;19.07;70.81;100399.63;5230330;33;34684;-84
2023/06/28 07:14:57;;;;;;;5.87;2.17;;;;;;;18.98;71.30;100398.28;5241366;33;34057;-84
2023/06/28 07:18:00;;;;;;;8.35;2.08;;;;;;;19.02;71.98;100394.88;5241165;33;34144;-84
2023/06/28 07:21:03;;;;;;;9.50;2.30;;;;;;;18.91;71.57;100406.56;5229480;33;34095;-84
2023/06/28 07:24:07;;;;;;;5.93;1.80;;;;;;;18.78;71.90;100404.88;5240951;33;33478;-84
2023/06/28 07:27:10;;;;;;;5.37;1.90;;;;;;;18.93;72.25;100406.34;5240516;33;33456;-84
2023/06/28 07:30:13;;;;;;;4.70;2.00;;;;;;;19.09;72.26;100410.31;5241018;33;33902;-84
2023/06/28 07:33:16;;;;;;;4.18;2.17;;;;;;;19.09;71.66;100400.22;5229137;33;34370;-84
2023/06/28 07:36:19;;;;;;;3.83;2.15;;;;;;;18.97;72.29;100397.44;5243809;33;33605;-84
2023/06/28 07:39:22;;;;;;;2.87;1.65;;;;;;;18.93;71.91;100398.16;5263992;33;34591;-84
2023/06/28 07:42:26;;;;;;;5.37;1.87;;;;;;;18.94;72.38;100405.28;5258398;33;33806;-84
2023/06/28 07:45:29;;;;;;;4.10;1.98;;;;;;;19.16;71.35;100403.69;5258097;33;34070;-84
2023/06/28 07:48:32;;;;;;;2.87;1.80;;;;;;;19.27;70.65;100410.22;5246196;33;33929;-84
2023/06/28 07:51:35;;;;;;;4.53;2.08;;;;;;;19.42;70.42;100407.88;5245918;33;35039;-84
2023/06/28 07:54:38;;;;;;;3.17;1.67;;;;;;;19.49;68.22;100418.69;5236262;33;33297;-84
2023/06/28 07:57:41;;;;;;;4.95;2.00;;;;;;;19.16;68.72;100411.03;5259451;33;34620;-88
2023/06/28 08:00:44;;;;;;;4.55;1.95;;;;;;;19.29;69.27;100415.47;5240120;33;34152;-88
2023/06/28 08:03:46;;;;;;;3.40;1.80;;;;;;;19.48;69.02;100395.19;5254146;33;35154;-88
2023/06/28 08:06:50;;;;;;;9.57;1.95;;;;;;;19.72;67.64;100397.97;5257050;33;33346;-88
2023/06/28 08:09:52;;;;;;;7.35;2.05;;;;;;;19.87;67.27;100396.41;5257482;33;33825;-85
2023/06/28 08:12:56;;;;;;;2.00;1.58;;;;;;;19.82;66.95;100390.81;5237776;33;33649;-84
2023/06/28 08:15:58;;;;;;;3.78;1.50;;;;;;;20.17;66.00;100395.41;5254037;33;34991;-84
2023/06/28 08:19:01;;;;;;;2.70;1.33;;;;;;;20.38;63.97;100399.41;5236349;33;33935;-85
2023/06/28 08:22:04;;;;;;;4.25;1.50;;;;;;;21.01;62.01;100390.25;5252304;33;34756;-84
2023/06/28 08:25:07;;;;;;;2.55;1.33;;;;;;;21.56;58.15;100398.84;5241022;33;33498;-85
2023/06/28 08:28:10;;;;;;;1.67;1.40;;;;;;;21.83;57.97;100388.88;5239313;33;33949;-85
2023/06/28 08:31:13;;;;;;;1.70;1.40;;;;;;;22.21;56.61;100392.69;5228853;33;33827;-85
2023/06/28 08:34:20;;;;;;;4.10;1.87;;;;;;;22.20;56.87;100393.78;5254017;33;33686;-85
2023/06/28 08:37:23;;;;;;;11.55;2.33;;;;;;;21.84;57.30;100392.44;5258788;33;33433;-84
2023/06/28 08:40:29;;;;;;;2.15;1.73;;;;;;;21.69;58.44;100393.84;5248318;33;34360;-84
2023/06/28 08:43:33;;;;;;;4.15;1.42;;;;;;;21.73;57.83;100399.66;5244937;33;33635;-84
2023/06/28 08:46:36;;;;;;;5.78;2.20;;;;;;;21.74;58.51;100395.84;5287957;33;35441;-84
2023/06/28 08:49:41;;;;;;;3.83;2.00;;;;;;;21.58;57.84;100392.03;5256383;33;33755;-84
2023/06/28 08:52:44;;;;;;;5.50;2.20;;;;;;;21.58;58.68;100394.78;5247325;33;33789;-84
2023/06/28 08:55:48;;;;;;;3.45;2.03;;;;;;;21.33;58.98;100394.38;5272506;33;34315;-84
2023/06/28 08:58:53;;;;;;;10.70;2.00;;;;;;;20.98;60.32;100393.50;5267210;33;34773;-84
2023/06/28 09:01:58;;;;;;;4.65;2.50;;;;;;;20.92;61.22;100393.66;5250964;33;34380;-84
2023/06/28 09:05:02;;;;;;;5.30;2.03;;;;;;;21.09;61.58;100377.22;5271331;33;33819;-85
2023/06/28 09:08:06;;;;;;;4.50;1.92;;;;;;;21.26;60.86;100378.94;5266736;33;35332;-85
2023/06/28 09:11:10;;;;;;;3.40;1.80;;;;;;;21.42;60.17;100377.28;5287524;33;35452;-84
2023/06/28 09:14:13;;;;;;;4.03;1.90;;;;;;;21.68;60.88;100377.69;5271876;33;34278;-84
2023/06/28 09:17:16;;;;;;;2.67;1.98;;;;;;;21.80;58.93;100369.37;5271748;33;33990;-84
2023/06/28 09:20:20;;;;;;;2.00;1.80;;;;;;;22.00;58.45;100368.81;5248146;33;33663;-84
2023/06/28 09:23:25;;;;;;;9.35;1.90;;;;;;;21.99;58.65;100369.88;5271922;33;33992;-84
2023/06/28 09:26:33;;;;;;;2.37;1.80;;;;;;;21.77;59.27;100370.69;5271763;33;34750;-84
2023/06/28 09:29:35;;;;;;;2.67;1.58;;;;;;;21.76;58.38;100363.53;5271828;33;34321;-84
2023/06/28 09:32:43;;;;;;;4.82;1.95;;;;;;;21.95;58.86;100364.91;5259062;33;33586;-84
2023/06/28 09:35:46;;;;;;;2.85;1.60;;;;;;;22.29;58.57;100353.88;5259561;33;33923;-84
2023/06/28 09:38:49;;;;;;;1.48;1.20;;;;;;;22.48;54.58;100351.59;5266120;33;33342;-84
2023/06/28 09:41:53;;;;;;;4.72;1.20;;;;;;;22.87;53.44;100354.19;5271967;33;33732;-84
2023/06/28 09:44:56;;;;;;;1.00;0.98;;;;;;;22.89;47.26;100354.78;5272350;33;34920;-84
2023/06/28 09:48:00;;;;;;;1.75;1.30;;;;;;;23.04;46.51;100352.19;5270610;33;33681;-84
2023/06/28 09:51:07;;;;;;;1.15;1.00;;;;;;;23.22;45.28;100347.38;5271998;33;33528;-84
2023/06/28 09:54:10;;;;;;;6.72;1.50;;;;;;;23.46;43.37;100342.37;5271845;33;34256;-84
2023/06/28 09:57:13;;;;;;;4.90;1.40;;;;;;;23.37;43.73;100353.03;5268187;33;33448;-84
2023/06/28 10:00:17;;;;;;;3.42;1.42;;;;;;;23.89;43.56;100352.25;5264901;33;34076;-88
2023/06/28 10:03:24;;;;;;;2.70;1.20;;;;;;;24.09;42.57;100343.28;5276441;33;33369;-89
2023/06/28 10:06:30;;;;;;;8.02;1.75;;;;;;;24.15;42.88;100333.97;5289330;33;34492;-85
2023/06/28 10:09:36;;;;;;;2.60;1.27;;;;;;;24.46;43.35;100327.78;5289089;33;34909;-85
2023/06/28 10:12:40;;;;;;;4.22;1.58;;;;;;;24.77;43.33;100339.66;5283633;33;33938;-85
2023/06/28 10:15:58;;;;;;;3.33;1.83;;;;;;;24.77;43.15;100332.22;5247455;33;34692;-85
2023/06/28 10:19:01;;;;;;;4.50;1.60;;;;;;;25.29;40.17;100335.87;5273197;33;33842;-85
2023/06/28 10:22:05;;;;;;;2.10;1.35;;;;;;;25.65;39.60;100331.09;5259198;33;33977;-84
